Terminal Aerodrome Forecast
Issued by NWS Corpus Christi, TX

Home | Current Version | Previous Version | Text Only | Print | Product List | Glossary On
Versions: 1 2 3 4 5 6 7 8 9 10 11 12 13 14 15 16 17 18 19 20 21
000
FTUS44 KCRP 230520
TAFCRP
TAF
KCRP 230520Z 2306/2406 14009KT P6SM SCT015 BKN100
      TEMPO 2306/2309 BKN015
     FM230900 15007KT P6SM VCSH BKN015 OVC080
     FM231400 15015G20KT P6SM VCTS SCT018CB BKN025 PROB30 2316/2319
      4SM TSRA BR BKN015CB OVC030
     FM231900 13018G24KT P6SM VCTS SCT025CB OVC100
      TEMPO 2319/2322 VRB15G30KT 2SM +TSRA BR OVC015CB
     FM240200 13008KT P6SM BKN015=

USA.gov is the U.S. government's official web portal to all federal, state and local government web resources and services.